Time;durP1;ratioP1;P1;durP2;ratioP2;P2;SDS_P1;SDS_P2;PMS_P1;PMS_P2;Temp;Humidity;BMP_temperature;BMP_pressure;BME280_temperature;BME280_humidity;BME280_pressure;Samples;Min_cycle;Max_cycle;Signal;HPM_P1;HPM_P2
2022/11/01 00:02:00;;;;;;;5.60;3.42;;;15.30;96.70;;;;;;4925236;29;20118;-72
2022/11/01 00:04:28;;;;;;;7.03;3.58;;;15.20;96.70;;;;;;4916537;29;20050;-72
2022/11/01 00:06:58;;;;;;;6.38;3.75;;;15.00;96.70;;;;;;4919265;29;20092;-73
2022/11/01 00:09:26;;;;;;;5.90;3.50;;;15.10;96.70;;;;;;4909106;29;20147;-72
2022/11/01 00:11:54;;;;;;;6.72;4.07;;;15.00;96.70;;;;;;4920680;29;20123;-72
2022/11/01 00:14:22;;;;;;;5.82;3.90;;;14.90;96.70;;;;;;4900134;29;20050;-72
2022/11/01 00:16:51;;;;;;;8.82;4.35;;;14.80;96.70;;;;;;4916763;29;20599;-72
2022/11/01 00:19:19;;;;;;;6.78;3.97;;;14.70;96.70;;;;;;4910079;29;20510;-72
2022/11/01 00:21:47;;;;;;;7.60;4.25;;;14.70;96.70;;;;;;4909341;29;20044;-72
2022/11/01 00:24:17;;;;;;;6.90;3.88;;;14.70;96.70;;;;;;4909778;29;20491;-72
2022/11/01 00:26:45;;;;;;;9.20;4.22;;;14.70;96.70;;;;;;4915857;29;20499;-73
2022/11/01 00:29:18;;;;;;;7.75;3.95;;;14.80;96.70;;;;;;4910673;29;20044;-72
2022/11/01 00:31:46;;;;;;;5.53;4.00;;;14.80;96.70;;;;;;4921001;29;20165;-72
2022/11/01 00:34:15;;;;;;;8.85;3.72;;;14.80;96.70;;;;;;4921932;29;20145;-73
2022/11/01 00:36:43;;;;;;;7.10;3.78;;;14.70;96.70;;;;;;4922490;29;20048;-72
2022/11/01 00:39:13;;;;;;;7.50;3.28;;;14.60;96.70;;;;;;4921851;29;20474;-72
2022/11/01 00:41:43;;;;;;;6.03;3.38;;;14.70;96.70;;;;;;4945454;28;20070;-72
2022/11/01 00:44:11;;;;;;;7.55;3.35;;;14.90;96.70;;;;;;4953568;28;20054;-72
2022/11/01 00:46:39;;;;;;;4.03;2.65;;;15.10;96.70;;;;;;4922141;28;20102;-72
2022/11/01 00:49:07;;;;;;;6.18;3.40;;;15.00;96.70;;;;;;4937375;28;20054;-72
2022/11/01 00:51:35;;;;;;;4.32;3.20;;;15.00;96.70;;;;;;4959550;28;20565;-72
2022/11/01 00:54:04;;;;;;;6.50;2.83;;;15.00;96.70;;;;;;4937942;28;20129;-73
2022/11/01 00:56:34;;;;;;;5.57;3.10;;;14.90;96.70;;;;;;4957988;28;20562;-72
2022/11/01 00:59:03;;;;;;;4.95;2.97;;;14.90;96.70;;;;;;4938064;28;20089;-72
2022/11/01 01:01:32;;;;;;;5.80;3.35;;;14.70;96.70;;;;;;4963185;28;20146;-73
2022/11/01 01:04:00;;;;;;;5.40;2.88;;;14.60;96.70;;;;;;4929333;28;20461;-73
2022/11/01 01:06:28;;;;;;;4.78;2.60;;;14.60;96.70;;;;;;4960593;28;20409;-72
2022/11/01 01:08:58;;;;;;;3.70;2.78;;;14.50;96.70;;;;;;4930482;28;20505;-72
2022/11/01 01:11:27;;;;;;;4.80;3.00;;;14.50;96.70;;;;;;4944166;28;20043;-73
2022/11/01 01:13:55;;;;;;;5.07;2.92;;;14.50;96.70;;;;;;4952833;28;20070;-73
2022/11/01 01:16:25;;;;;;;7.20;3.08;;;14.50;96.70;;;;;;4944823;28;20051;-72
2022/11/01 01:18:54;;;;;;;8.98;3.28;;;14.50;96.70;;;;;;4932023;28;20050;-72
2022/11/01 01:21:22;;;;;;;5.50;2.92;;;14.60;96.70;;;;;;4930058;29;21051;-72
2022/11/01 01:23:50;;;;;;;5.80;3.30;;;14.50;96.70;;;;;;4931873;29;20051;-72
2022/11/01 01:26:19;;;;;;;5.93;3.55;;;14.40;96.70;;;;;;4948895;28;20035;-72
2022/11/01 01:28:47;;;;;;;5.18;3.03;;;14.40;96.70;;;;;;4931350;28;20054;-72
2022/11/01 01:31:20;;;;;;;6.70;3.40;;;14.60;96.70;;;;;;4940921;28;20499;-72
2022/11/01 01:33:50;;;;;;;5.20;3.17;;;14.50;96.70;;;;;;4949184;28;20046;-73
2022/11/01 01:36:18;;;;;;;5.68;2.78;;;14.40;96.70;;;;;;4952320;28;20051;-72
2022/11/01 01:38:46;;;;;;;6.53;3.00;;;14.50;96.70;;;;;;4937525;28;20532;-73
2022/11/01 01:44:02;;;;;;;5.60;3.33;;;14.40;96.70;;;;;;4951102;28;20067;-72
2022/11/01 01:46:30;;;;;;;6.60;3.15;;;14.40;96.70;;;;;;4948153;28;20054;-72
2022/11/01 01:49:00;;;;;;;7.50;3.05;;;14.40;96.70;;;;;;4931244;29;20560;-72
2022/11/01 01:51:29;;;;;;;7.78;3.33;;;14.40;96.70;;;;;;4947630;28;20070;-73
2022/11/01 01:53:58;;;;;;;6.97;3.72;;;14.40;96.70;;;;;;4942420;28;20047;-72
2022/11/01 01:56:31;;;;;;;5.00;3.67;;;14.30;96.70;;;;;;4958080;28;20121;-72
2022/11/01 01:59:03;;;;;;;6.57;3.30;;;14.20;96.70;;;;;;4960287;28;20046;-72
2022/11/01 02:01:32;;;;;;;6.43;3.30;;;14.30;96.70;;;;;;4941702;28;20501;-72
2022/11/01 02:04:04;;;;;;;6.55;3.22;;;14.30;96.70;;;;;;4967537;28;20047;-72
2022/11/01 02:06:34;;;;;;;6.40;3.65;;;14.10;96.70;;;;;;4936490;28;20066;-72
2022/11/01 02:09:05;;;;;;;5.63;2.90;;;13.90;96.70;;;;;;4944588;28;20047;-72
2022/11/01 02:11:35;;;;;;;7.28;3.00;;;14.00;96.70;;;;;;4955178;28;20054;-72
2022/11/01 02:14:04;;;;;;;6.10;3.33;;;14.00;96.70;;;;;;4955932;28;20061;-72
2022/11/01 02:16:42;;;;;;;5.68;3.42;;;13.90;96.70;;;;;;4930659;28;20054;-72
2022/11/01 02:19:30;;;;;;;6.53;2.90;;;13.70;96.70;;;;;;4933229;29;20051;-73
2022/11/01 02:22:04;;;;;;;4.13;3.08;;;13.60;96.70;;;;;;4963259;28;20141;-72
2022/11/01 02:25:19;;;;;;;5.70;2.88;;;13.50;96.70;;;;;;4960352;28;20054;-73
2022/11/01 02:28:06;;;;;;;4.22;2.55;;;13.50;96.70;;;;;;4941000;28;20050;-72
2022/11/01 02:30:44;;;;;;;5.88;2.88;;;13.50;96.70;;;;;;4957256;28;20053;-72
2022/11/01 02:33:27;;;;;;;4.45;3.00;;;13.30;96.70;;;;;;4915169;29;20542;-72
2022/11/01 02:36:01;;;;;;;6.30;2.90;;;13.40;96.70;;;;;;4946648;28;20517;-72
2022/11/01 02:38:37;;;;;;;4.07;2.65;;;13.40;96.70;;;;;;4947315;28;20050;-73
2022/11/01 02:41:10;;;;;;;6.53;3.08;;;13.20;96.70;;;;;;4944921;28;20063;-73
2022/11/01 02:43:46;;;;;;;5.18;3.05;;;13.40;96.70;;;;;;4948911;28;20047;-72
2022/11/01 02:49:04;;;;;;;4.95;2.95;;;13.40;96.70;;;;;;4955542;28;20691;-72
2022/11/01 02:51:34;;;;;;;4.78;3.05;;;13.40;96.70;;;;;;4937782;28;20057;-72
2022/11/01 02:54:05;;;;;;;6.55;3.20;;;13.30;96.70;;;;;;4929867;28;20106;-72
2022/11/01 02:56:34;;;;;;;4.93;3.20;;;13.30;96.70;;;;;;4930447;28;20106;-72
2022/11/01 02:59:03;;;;;;;6.25;2.88;;;13.40;96.70;;;;;;4934910;28;20501;-72
2022/11/01 03:01:34;;;;;;;5.40;2.95;;;13.40;96.70;;;;;;4965649;28;20142;-72
2022/11/01 03:04:04;;;;;;;3.90;3.05;;;13.30;96.70;;;;;;4951128;28;20153;-72
2022/11/01 03:06:35;;;;;;;6.10;2.90;;;13.30;96.70;;;;;;4956870;28;20039;-72
2022/11/01 03:09:09;;;;;;;5.68;2.80;;;13.20;96.70;;;;;;4946383;28;20055;-72
2022/11/01 03:11:48;;;;;;;5.97;2.78;;;13.10;96.70;;;;;;4930117;29;20059;-73
2022/11/01 03:14:24;;;;;;;3.88;3.00;;;13.10;96.70;;;;;;4934485;28;20121;-72
2022/11/01 03:16:58;;;;;;;5.10;3.03;;;13.00;96.70;;;;;;4915711;28;20062;-72
2022/11/01 03:19:36;;;;;;;6.55;3.33;;;13.10;96.70;;;;;;4960208;28;20101;-72
2022/11/01 03:22:09;;;;;;;6.20;3.03;;;13.20;96.70;;;;;;4940762;29;20557;-72
2022/11/01 03:24:44;;;;;;;4.80;2.90;;;13.10;96.70;;;;;;4950372;28;20051;-73
2022/11/01 03:27:19;;;;;;;4.18;2.53;;;13.00;96.70;;;;;;4939300;29;20080;-73
2022/11/01 03:29:55;;;;;;;5.10;2.70;;;13.00;96.70;;;;;;4939128;28;20493;-72
2022/11/01 03:32:27;;;;;;;4.63;2.55;;;13.10;96.70;;;;;;4954153;28;20137;-72
2022/11/01 03:35:00;;;;;;;7.88;3.05;;;13.10;96.70;;;;;;4934117;28;20065;-72
2022/11/01 03:37:31;;;;;;;4.10;2.63;;;13.20;96.70;;;;;;4928372;29;20586;-72
2022/11/01 03:40:03;;;;;;;4.40;2.92;;;13.30;96.70;;;;;;4963003;28;20046;-72
2022/11/01 03:42:32;;;;;;;5.45;2.58;;;13.30;96.70;;;;;;4928188;29;20588;-72
2022/11/01 03:45:06;;;;;;;5.00;2.92;;;13.40;96.70;;;;;;4942672;29;20054;-72
2022/11/01 03:47:34;;;;;;;4.45;2.47;;;13.30;96.70;;;;;;4929943;29;20058;-73
2022/11/01 03:50:18;;;;;;;4.95;2.30;;;13.10;96.70;;;;;;4926273;29;20044;-72
2022/11/01 03:52:47;;;;;;;5.00;2.50;;;13.20;96.70;;;;;;4926001;29;20097;-72
2022/11/01 03:55:19;;;;;;;4.50;2.28;;;13.30;96.70;;;;;;4941923;29;20375;-73
2022/11/01 03:57:48;;;;;;;4.93;2.83;;;13.30;96.70;;;;;;4936592;29;20047;-72
2022/11/01 04:00:18;;;;;;;5.85;2.70;;;13.30;96.70;;;;;;4925933;29;20548;-72
2022/11/01 04:02:46;;;;;;;5.55;2.50;;;13.40;96.70;;;;;;4927706;29;20482;-72
2022/11/01 04:05:17;;;;;;;6.60;2.50;;;13.30;96.70;;;;;;4925667;29;20486;-73
2022/11/01 04:07:45;;;;;;;4.65;2.33;;;13.20;96.70;;;;;;4930445;28;20051;-72
2022/11/01 04:10:14;;;;;;;3.83;2.50;;;13.10;96.70;;;;;;4924843;29;20490;-72
2022/11/01 04:12:44;;;;;;;3.55;2.40;;;13.00;96.70;;;;;;4925291;29;20074;-72
2022/11/01 04:20:52;;;;;;;6.20;2.80;;;13.00;96.70;;;;;;4937383;28;20047;-72
2022/11/01 04:23:21;;;;;;;4.70;2.30;;;13.00;96.70;;;;;;4945427;29;20094;-72
2022/11/01 04:25:49;;;;;;;5.30;2.58;;;13.10;96.70;;;;;;4929552;28;20044;-72
2022/11/01 04:28:17;;;;;;;5.00;2.63;;;13.10;96.70;;;;;;4925617;29;20048;-72
2022/11/01 04:30:45;;;;;;;4.45;2.92;;;13.00;96.70;;;;;;4925493;29;20054;-72
2022/11/01 04:33:13;;;;;;;4.28;2.75;;;12.90;96.70;;;;;;4925775;29;20071;-72
2022/11/01 04:35:41;;;;;;;6.50;3.20;;;12.90;96.70;;;;;;4924787;29;20047;-72
2022/11/01 04:38:11;;;;;;;6.03;3.10;;;12.90;96.70;;;;;;4926680;29;20047;-72
2022/11/01 04:40:39;;;;;;;8.13;3.00;;;12.90;96.70;;;;;;4916931;28;20043;-72
2022/11/01 04:43:08;;;;;;;6.43;3.45;;;12.90;96.70;;;;;;4940132;28;20043;-72
2022/11/01 04:45:36;;;;;;;5.10;2.90;;;12.80;96.70;;;;;;4930557;28;20939;-72
2022/11/01 04:48:06;;;;;;;4.40;3.22;;;12.50;96.70;;;;;;4940686;28;20077;-72
2022/11/01 04:50:35;;;;;;;4.57;2.75;;;12.50;96.70;;;;;;4967254;28;20145;-73
2022/11/01 04:53:03;;;;;;;5.00;2.65;;;12.40;96.70;;;;;;4945953;28;21105;-72
2022/11/01 04:55:33;;;;;;;8.18;3.00;;;12.50;96.70;;;;;;4932967;28;20505;-72
2022/11/01 04:58:01;;;;;;;4.85;2.95;;;12.40;96.70;;;;;;4932758;28;20553;-72
2022/11/01 05:00:30;;;;;;;3.90;3.10;;;12.20;96.70;;;;;;4938902;28;20069;-72
2022/11/01 05:03:02;;;;;;;5.82;2.97;;;12.20;96.70;;;;;;4944766;28;20094;-72
2022/11/01 05:05:31;;;;;;;7.35;3.30;;;12.20;96.70;;;;;;4949766;28;20409;-72
2022/11/01 05:08:00;;;;;;;4.88;2.70;;;12.30;96.70;;;;;;4951930;28;20067;-72
2022/11/01 05:10:37;;;;;;;4.93;3.08;;;12.20;96.70;;;;;;4936310;28;20038;-72
2022/11/01 05:13:05;;;;;;;4.88;2.42;;;12.10;96.70;;;;;;4952943;28;20051;-72
2022/11/01 05:15:34;;;;;;;8.43;3.08;;;12.20;96.70;;;;;;4948043;28;20050;-72
2022/11/01 05:18:10;;;;;;;6.57;3.00;;;12.30;96.70;;;;;;4933934;28;20075;-73
2022/11/01 05:20:38;;;;;;;4.72;3.25;;;12.20;96.70;;;;;;4949459;28;20047;-73
2022/11/01 05:23:06;;;;;;;6.25;3.45;;;12.30;96.70;;;;;;4956102;28;20074;-72
2022/11/01 05:25:35;;;;;;;4.93;3.13;;;12.30;96.70;;;;;;4949403;28;20047;-72
2022/11/01 05:28:07;;;;;;;5.07;3.30;;;12.40;96.70;;;;;;4931499;29;20054;-72
2022/11/01 05:30:36;;;;;;;7.40;3.42;;;12.20;96.70;;;;;;4950473;28;20532;-72
2022/11/01 05:33:05;;;;;;;4.45;2.92;;;12.00;96.70;;;;;;4948957;28;20043;-72
2022/11/01 05:35:34;;;;;;;5.80;3.15;;;12.20;96.70;;;;;;4932459;29;20047;-73
2022/11/01 05:38:03;;;;;;;3.20;2.45;;;12.20;96.70;;;;;;4931176;29;20047;-72
2022/11/01 05:40:32;;;;;;;3.13;2.50;;;12.10;96.70;;;;;;4957051;28;20039;-72
2022/11/01 05:43:02;;;;;;;4.07;2.60;;;12.10;96.70;;;;;;4930537;28;20050;-73
2022/11/01 05:45:30;;;;;;;3.97;2.88;;;12.00;96.70;;;;;;4931812;28;20762;-72
2022/11/01 05:48:02;;;;;;;4.50;2.65;;;12.00;96.70;;;;;;4950104;28;20043;-72
2022/11/01 05:50:30;;;;;;;3.97;2.63;;;11.90;96.70;;;;;;4954239;28;20047;-72
2022/11/01 05:53:06;;;;;;;3.35;2.72;;;11.90;96.70;;;;;;4957425;28;20073;-72
2022/11/01 05:55:35;;;;;;;4.65;2.90;;;12.00;96.70;;;;;;4947592;28;20178;-72
2022/11/01 05:58:05;;;;;;;5.68;3.20;;;12.10;96.70;;;;;;4951270;28;20047;-72
2022/11/01 06:00:33;;;;;;;5.47;2.85;;;12.00;96.70;;;;;;4953890;28;20038;-72
2022/11/01 06:03:02;;;;;;;5.03;2.85;;;11.90;96.70;;;;;;4945479;28;20063;-72
2022/11/01 06:05:31;;;;;;;4.07;3.00;;;11.90;96.70;;;;;;4930577;28;20098;-72
2022/11/01 06:08:00;;;;;;;3.97;2.58;;;12.00;96.70;;;;;;4948387;28;20035;-72
2022/11/01 06:10:28;;;;;;;4.30;2.53;;;12.00;96.70;;;;;;4930902;28;20090;-72
2022/11/01 06:12:57;;;;;;;6.15;2.75;;;12.00;96.70;;;;;;4949287;28;20371;-72
2022/11/01 06:15:27;;;;;;;4.63;3.47;;;12.00;96.70;;;;;;4931311;29;20126;-72
2022/11/01 06:17:56;;;;;;;4.20;3.10;;;11.90;96.70;;;;;;4931148;29;20055;-72
2022/11/01 06:20:25;;;;;;;7.13;4.03;;;12.00;96.70;;;;;;4957535;28;20506;-72
2022/11/01 06:22:52;;;;;;;4.95;3.65;;;12.20;96.70;;;;;;4933140;28;20047;-73
2022/11/01 06:25:21;;;;;;;4.32;3.38;;;12.10;96.70;;;;;;4952597;28;20047;-72
2022/11/01 06:27:49;;;;;;;6.63;3.03;;;12.00;96.70;;;;;;4955763;28;20035;-72
2022/11/01 06:30:17;;;;;;;7.40;3.67;;;12.10;96.70;;;;;;4952456;28;20102;-72
2022/11/01 06:32:46;;;;;;;6.93;4.00;;;12.20;96.70;;;;;;4930841;29;20052;-72
2022/11/01 06:35:14;;;;;;;5.35;3.88;;;12.30;96.70;;;;;;4951761;28;20050;-72
2022/11/01 06:37:42;;;;;;;6.63;4.03;;;12.30;96.70;;;;;;4921930;28;20055;-72
2022/11/01 06:40:11;;;;;;;6.82;4.18;;;12.40;96.70;;;;;;4932454;28;20079;-72
2022/11/01 06:42:39;;;;;;;6.93;3.88;;;12.40;96.70;;;;;;4931102;29;20055;-72
2022/11/01 06:45:13;;;;;;;7.00;3.53;;;12.50;96.70;;;;;;4953989;28;20120;-72
2022/11/01 06:47:47;;;;;;;7.30;3.97;;;12.50;96.70;;;;;;4948591;28;20075;-72
2022/11/01 06:50:14;;;;;;;6.30;3.80;;;12.50;96.70;;;;;;4932941;28;20123;-72
2022/11/01 06:52:42;;;;;;;6.93;4.18;;;12.60;96.70;;;;;;4925265;28;20074;-72
2022/11/01 06:55:10;;;;;;;4.75;3.65;;;12.50;96.70;;;;;;4935316;28;20695;-72
2022/11/01 06:57:37;;;;;;;7.35;4.15;;;12.50;96.70;;;;;;4944911;28;20146;-71
2022/11/01 07:00:07;;;;;;;5.88;4.30;;;12.50;96.70;;;;;;4930254;28;20051;-72
2022/11/01 07:02:35;;;;;;;7.95;4.32;;;12.50;96.70;;;;;;4929403;28;20139;-72
2022/11/01 07:05:06;;;;;;;7.20;4.70;;;12.50;96.70;;;;;;4927651;28;20107;-72
2022/11/01 07:07:33;;;;;;;6.97;4.88;;;12.40;96.70;;;;;;4957952;28;20038;-72
2022/11/01 07:10:01;;;;;;;8.60;4.72;;;12.40;96.70;;;;;;4951395;28;20039;-72
2022/11/01 07:12:29;;;;;;;8.35;4.78;;;12.50;96.70;;;;;;4959009;28;20070;-72
2022/11/01 07:14:56;;;;;;;8.48;5.22;;;12.60;96.70;;;;;;4928647;29;20138;-72
2022/11/01 07:17:25;;;;;;;6.60;4.70;;;12.70;96.70;;;;;;4928585;28;20047;-72
2022/11/01 07:19:52;;;;;;;7.82;4.88;;;12.80;96.70;;;;;;4934170;28;20049;-72
2022/11/01 07:22:21;;;;;;;9.00;5.38;;;12.80;96.70;;;;;;4946772;28;20120;-72
2022/11/01 07:24:49;;;;;;;9.15;5.03;;;12.90;96.70;;;;;;4963469;28;20555;-72
2022/11/01 07:27:17;;;;;;;7.70;4.63;;;13.00;96.70;;;;;;4943507;28;20062;-72
2022/11/01 07:29:47;;;;;;;7.85;4.88;;;13.10;96.70;;;;;;4930795;28;20075;-73
2022/11/01 07:32:14;;;;;;;8.27;5.13;;;13.20;96.70;;;;;;4947602;28;20039;-73
2022/11/01 07:34:42;;;;;;;7.45;5.25;;;13.00;96.70;;;;;;4951392;28;20043;-72
2022/11/01 07:37:10;;;;;;;7.72;5.55;;;13.00;96.70;;;;;;4915774;28;20062;-72
2022/11/01 07:39:39;;;;;;;8.45;5.40;;;13.10;96.70;;;;;;4959045;28;20049;-72
2022/11/01 07:42:07;;;;;;;7.38;5.10;;;13.40;96.70;;;;;;4957612;28;20051;-72
2022/11/01 07:44:34;;;;;;;6.40;5.18;;;13.60;96.70;;;;;;4933722;28;20048;-72
2022/11/01 07:47:02;;;;;;;9.70;5.47;;;13.60;96.70;;;;;;4954162;28;20085;-72
2022/11/01 07:49:30;;;;;;;7.20;4.90;;;13.80;96.70;;;;;;4946872;28;20047;-72
2022/11/01 07:51:57;;;;;;;6.95;5.50;;;13.90;96.70;;;;;;4948636;28;20401;-72
2022/11/01 07:54:29;;;;;;;10.98;5.43;;;14.00;96.70;;;;;;4937474;28;20050;-73
2022/11/01 07:56:58;;;;;;;8.98;5.65;;;14.00;96.70;;;;;;4935658;28;20077;-72
2022/11/01 07:59:26;;;;;;;7.57;4.80;;;14.10;96.70;;;;;;4932986;28;20047;-72
2022/11/01 08:01:53;;;;;;;7.03;4.80;;;14.10;96.70;;;;;;4949226;28;20043;-72
2022/11/01 08:04:22;;;;;;;7.82;5.13;;;14.10;96.70;;;;;;4943583;28;20130;-72
2022/11/01 08:06:49;;;;;;;6.53;4.88;;;14.10;96.70;;;;;;4935558;29;20163;-71
2022/11/01 08:09:20;;;;;;;8.93;5.38;;;14.20;96.70;;;;;;4946498;28;20481;-72
2022/11/01 08:11:48;;;;;;;9.18;5.55;;;14.30;96.70;;;;;;4927796;29;20074;-72
2022/11/01 08:14:18;;;;;;;9.75;5.28;;;14.30;96.70;;;;;;4948566;28;21007;-73
2022/11/01 08:16:49;;;;;;;7.55;5.45;;;14.30;96.70;;;;;;4931246;28;20693;-72
2022/11/01 08:19:16;;;;;;;8.43;5.13;;;14.40;96.70;;;;;;4939122;28;20047;-72
2022/11/01 08:21:44;;;;;;;8.77;5.80;;;14.50;96.70;;;;;;4920638;28;20054;-72
2022/11/01 08:24:12;;;;;;;7.07;5.10;;;14.70;96.70;;;;;;4946625;28;20720;-72
2022/11/01 08:26:40;;;;;;;7.07;4.93;;;14.70;96.70;;;;;;4938731;28;20094;-72
2022/11/01 08:29:08;;;;;;;6.82;5.00;;;14.80;96.70;;;;;;4960298;28;20051;-72
2022/11/01 08:31:40;;;;;;;8.90;5.05;;;14.80;96.70;;;;;;4947595;28;20110;-73
2022/11/01 08:34:08;;;;;;;9.70;5.75;;;14.90;96.70;;;;;;4929483;28;20448;-72
2022/11/01 08:36:43;;;;;;;10.02;5.60;;;15.00;96.70;;;;;;4954803;28;20051;-72
2022/11/01 08:39:11;;;;;;;9.65;5.65;;;15.10;96.70;;;;;;4920207;28;20062;-72
2022/11/01 08:41:39;;;;;;;7.05;4.80;;;15.20;96.70;;;;;;4928169;29;20059;-73
2022/11/01 08:44:07;;;;;;;7.78;5.88;;;15.20;96.70;;;;;;4943582;28;20043;-72
2022/11/01 08:46:34;;;;;;;8.27;5.30;;;15.30;96.70;;;;;;4941464;28;20480;-72
2022/11/01 08:49:03;;;;;;;7.22;5.57;;;15.40;96.70;;;;;;4937496;29;20098;-72
2022/11/01 08:51:31;;;;;;;14.13;7.30;;;15.50;96.70;;;;;;4945332;28;20446;-72
2022/11/01 08:53:59;;;;;;;9.80;6.07;;;15.50;96.70;;;;;;4934934;28;20500;-72
2022/11/01 08:56:28;;;;;;;10.85;6.82;;;15.70;96.70;;;;;;4943159;28;20436;-72
2022/11/01 08:58:56;;;;;;;13.13;7.80;;;15.80;96.70;;;;;;4937765;29;20086;-72
2022/11/01 09:01:25;;;;;;;11.10;7.70;;;15.90;96.70;;;;;;4950231;28;20125;-72
2022/11/01 09:03:56;;;;;;;12.73;7.97;;;16.00;96.70;;;;;;4937752;28;20043;-72
2022/11/01 09:06:26;;;;;;;11.52;7.75;;;16.20;96.70;;;;;;4932649;28;20381;-72
2022/11/01 09:08:57;;;;;;;11.88;8.57;;;16.30;96.70;;;;;;4952788;28;20075;-72
2022/11/01 09:11:25;;;;;;;14.00;8.55;;;16.50;96.70;;;;;;4946011;28;20063;-72
2022/11/01 09:13:53;;;;;;;12.68;8.57;;;16.50;96.70;;;;;;4945294;28;20071;-71
2022/11/01 09:16:21;;;;;;;12.75;8.57;;;16.60;96.70;;;;;;4928171;28;20043;-71
2022/11/01 09:18:49;;;;;;;11.55;8.15;;;16.70;96.70;;;;;;4923982;28;20039;-71
2022/11/01 09:21:17;;;;;;;10.70;8.15;;;16.80;96.70;;;;;;4961412;28;20047;-71
2022/11/01 09:23:46;;;;;;;11.85;8.10;;;16.80;96.70;;;;;;4950306;28;20607;-71
2022/11/01 09:26:14;;;;;;;11.73;8.23;;;16.90;96.70;;;;;;4945649;28;20371;-72
2022/11/01 09:28:41;;;;;;;11.88;8.80;;;16.90;96.70;;;;;;4928363;29;20490;-72
2022/11/01 09:31:11;;;;;;;12.10;8.10;;;16.90;96.70;;;;;;4935376;28;20405;-72
2022/11/01 09:33:47;;;;;;;11.90;8.10;;;16.90;96.70;;;;;;4926785;28;20051;-72
2022/11/01 09:36:15;;;;;;;12.70;8.45;;;17.00;96.70;;;;;;4964533;28;20071;-72
2022/11/01 09:38:43;;;;;;;12.05;7.80;;;17.10;96.70;;;;;;4929104;29;20425;-73
2022/11/01 09:41:26;;;;;;;12.77;7.97;;;17.10;96.70;;;;;;4931268;29;20059;-71
2022/11/01 09:43:56;;;;;;;10.95;7.40;;;17.20;96.70;;;;;;4929464;28;20571;-72
2022/11/01 09:46:30;;;;;;;11.23;7.65;;;17.30;96.70;;;;;;4948312;28;20585;-72
2022/11/01 09:48:59;;;;;;;10.63;7.25;;;17.40;96.70;;;;;;4928503;29;20054;-72
2022/11/01 09:51:28;;;;;;;10.15;6.97;;;17.40;96.70;;;;;;4930588;28;20051;-72
2022/11/01 09:54:00;;;;;;;9.82;7.25;;;17.50;96.70;;;;;;4936139;28;20910;-71
2022/11/01 09:56:33;;;;;;;11.95;7.38;;;17.50;96.70;;;;;;4944519;28;20043;-72
2022/11/01 09:59:15;;;;;;;13.85;7.60;;;17.40;96.70;;;;;;4951957;28;20043;-71
2022/11/01 10:01:52;;;;;;;10.27;6.88;;;17.40;96.70;;;;;;4930431;28;20059;-72
2022/11/01 10:04:45;;;;;;;10.27;6.65;;;17.40;96.70;;;;;;4943533;28;20951;-72
2022/11/01 10:07:21;;;;;;;9.88;7.30;;;17.40;96.70;;;;;;4953248;28;20057;-72
2022/11/01 10:09:54;;;;;;;12.70;8.87;;;17.50;96.70;;;;;;4949902;28;20043;-72
2022/11/01 10:12:40;;;;;;;12.05;8.63;;;17.50;96.70;;;;;;4952673;28;20118;-72
2022/11/01 10:15:31;;;;;;;12.73;9.35;;;17.60;96.70;;;;;;4955196;28;20441;-72
2022/11/01 10:18:09;;;;;;;15.98;9.77;;;17.80;96.70;;;;;;4953165;28;20117;-73
2022/11/01 10:20:39;;;;;;;16.17;10.02;;;18.00;96.70;;;;;;4941725;29;20130;-72
2022/11/01 10:23:11;;;;;;;15.43;10.05;;;18.00;96.70;;;;;;4944461;28;20049;-73
2022/11/01 10:25:47;;;;;;;13.63;9.55;;;18.10;96.70;;;;;;4947121;28;20039;-72
2022/11/01 10:28:24;;;;;;;14.48;9.18;;;18.20;96.70;;;;;;4949978;28;20039;-72
2022/11/01 10:31:15;;;;;;;12.05;8.45;;;18.50;96.70;;;;;;4932776;29;20102;-72
2022/11/01 10:33:48;;;;;;;13.50;8.43;;;18.80;96.70;;;;;;4948368;28;20042;-72
2022/11/01 10:36:20;;;;;;;13.30;8.18;;;19.00;96.70;;;;;;4930428;28;20047;-71
2022/11/01 10:38:54;;;;;;;12.85;8.02;;;19.10;96.70;;;;;;4914892;29;20047;-71
2022/11/01 10:41:46;;;;;;;10.60;8.02;;;19.10;96.70;;;;;;4933619;28;20055;-71
2022/11/01 10:44:27;;;;;;;10.80;7.97;;;19.10;96.70;;;;;;4929676;29;20145;-71
2022/11/01 10:46:57;;;;;;;13.43;8.30;;;19.10;96.70;;;;;;4930763;29;20457;-71
2022/11/01 10:49:30;;;;;;;11.20;7.75;;;19.30;96.70;;;;;;4914871;28;20421;-71
2022/11/01 10:52:24;;;;;;;13.75;7.70;;;19.50;96.70;;;;;;4930156;29;20067;-71
2022/11/01 10:54:54;;;;;;;10.10;6.85;;;19.50;96.70;;;;;;4954110;28;20053;-71
2022/11/01 10:57:29;;;;;;;9.40;7.40;;;19.60;96.70;;;;;;4942854;28;20047;-72
2022/11/01 11:00:04;;;;;;;10.57;7.10;;;19.60;96.70;;;;;;4933746;28;20320;-73
2022/11/01 11:02:37;;;;;;;8.77;7.03;;;19.60;96.70;;;;;;4962929;28;20094;-74
2022/11/01 11:05:06;;;;;;;8.30;6.20;;;19.50;96.70;;;;;;4942746;28;20059;-74
2022/11/01 11:07:33;;;;;;;18.13;13.68;;;19.50;96.70;;;;;;4947775;28;20090;-74
2022/11/01 11:10:02;;;;;;;20.92;13.23;;;19.50;96.70;;;;;;4950162;28;20054;-73
2022/11/01 11:12:30;;;;;;;13.70;9.07;;;19.50;96.70;;;;;;4947940;28;20046;-71
2022/11/01 11:15:14;;;;;;;11.13;6.97;;;19.40;96.70;;;;;;4950585;28;20114;-72
2022/11/01 11:17:44;;;;;;;11.35;6.55;;;19.40;96.70;;;;;;4943811;28;20050;-72
2022/11/01 11:20:25;;;;;;;10.32;6.47;;;19.50;96.70;;;;;;4920708;28;20055;-72
2022/11/01 11:22:53;;;;;;;10.82;6.07;;;19.50;96.70;;;;;;4943773;28;20098;-71
2022/11/01 11:25:29;;;;;;;10.80;7.10;;;19.50;96.70;;;;;;4962477;28;20564;-72
2022/11/01 11:27:57;;;;;;;13.52;6.18;;;19.50;96.70;;;;;;4939373;28;20047;-72
2022/11/01 11:30:31;;;;;;;10.30;5.85;;;19.60;96.70;;;;;;4948360;28;20047;-72
2022/11/01 11:33:01;;;;;;;9.68;5.50;;;19.80;96.70;;;;;;4938588;29;20039;-74
2022/11/01 11:35:31;;;;;;;10.75;5.20;;;20.00;96.70;;;;;;4937031;28;20046;-74
2022/11/01 11:38:02;;;;;;;8.80;5.50;;;20.20;96.70;;;;;;4940636;28;20494;-74
2022/11/01 11:40:44;;;;;;;10.63;6.53;;;20.20;96.70;;;;;;4947103;28;20047;-73
2022/11/01 11:43:24;;;;;;;12.43;7.03;;;20.20;96.70;;;;;;4935795;28;20047;-74
2022/11/01 11:46:12;;;;;;;11.77;7.10;;;20.10;96.70;;;;;;4913199;29;20066;-73
2022/11/01 11:48:51;;;;;;;13.30;7.28;;;20.10;96.70;;;;;;4946300;28;20051;-74
2022/11/01 11:51:20;;;;;;;10.25;6.43;;;20.20;96.70;;;;;;4929099;28;20593;-74
2022/11/01 11:54:20;;;;;;;11.80;6.32;;;20.20;96.70;;;;;;4930943;29;20039;-73
2022/11/01 11:56:50;;;;;;;11.85;6.63;;;20.30;96.70;;;;;;4923191;29;20396;-73
2022/11/01 11:59:24;;;;;;;10.35;6.50;;;20.40;96.70;;;;;;4925427;29;20067;-73
2022/11/01 12:02:03;;;;;;;10.35;6.30;;;20.30;96.70;;;;;;4930942;28;20343;-73
2022/11/01 12:04:39;;;;;;;12.70;6.90;;;20.30;96.70;;;;;;4962700;28;20059;-73
2022/11/01 12:07:25;;;;;;;16.67;6.60;;;20.30;96.70;;;;;;4939955;28;20098;-73
2022/11/01 12:09:54;;;;;;;11.25;6.22;;;20.20;96.70;;;;;;4964505;28;20055;-73
2022/11/01 12:12:25;;;;;;;10.80;6.60;;;20.20;96.70;;;;;;4936050;28;20062;-73
2022/11/01 12:14:54;;;;;;;10.02;5.90;;;20.10;96.70;;;;;;4921905;28;20154;-73
2022/11/01 12:17:32;;;;;;;10.50;6.35;;;20.10;96.70;;;;;;4953673;28;20097;-73
2022/11/01 12:20:06;;;;;;;7.22;5.55;;;20.10;96.70;;;;;;4945546;28;20049;-73
2022/11/01 12:22:37;;;;;;;7.85;5.50;;;20.20;96.70;;;;;;4949392;28;20058;-73
2022/11/01 12:25:09;;;;;;;11.48;5.88;;;20.20;96.70;;;;;;4937504;28;20720;-73
2022/11/01 12:27:40;;;;;;;9.00;5.85;;;20.30;96.70;;;;;;4970877;28;20051;-73
2022/11/01 12:30:16;;;;;;;9.60;5.70;;;20.40;96.70;;;;;;4957111;28;20055;-73
2022/11/01 12:32:49;;;;;;;12.82;6.13;;;20.50;96.70;;;;;;4949530;28;20051;-73
2022/11/01 12:35:25;;;;;;;14.15;5.55;;;20.60;96.70;;;;;;4943662;28;20497;-73
2022/11/01 12:38:03;;;;;;;9.25;4.82;;;20.70;96.70;;;;;;4944156;28;20166;-73
2022/11/01 12:40:35;;;;;;;8.75;5.15;;;20.80;96.70;;;;;;4940048;28;20047;-73
2022/11/01 12:43:14;;;;;;;8.38;4.82;;;20.80;96.70;;;;;;4953224;28;20453;-73
2022/11/01 12:45:48;;;;;;;7.78;4.93;;;20.80;96.70;;;;;;4927468;29;20055;-73
2022/11/01 12:48:25;;;;;;;7.03;4.68;;;20.80;96.70;;;;;;4945786;28;20054;-73
2022/11/01 12:50:59;;;;;;;8.82;4.68;;;20.90;96.70;;;;;;4945207;28;20075;-73
2022/11/01 12:53:31;;;;;;;11.07;5.43;;;20.90;96.70;;;;;;4946067;28;20031;-73
2022/11/01 12:55:59;;;;;;;8.35;5.45;;;20.90;96.70;;;;;;4928585;28;20053;-73
2022/11/01 12:58:29;;;;;;;6.72;4.47;;;21.00;96.70;;;;;;4950684;28;20510;-73
2022/11/01 13:01:22;;;;;;;7.30;4.80;;;21.00;96.70;;;;;;4927954;28;20112;-73
2022/11/01 13:04:12;;;;;;;8.70;4.50;;;21.00;96.70;;;;;;4928627;29;20524;-73
2022/11/01 13:07:20;;;;;;;7.65;4.25;;;21.00;96.70;;;;;;4961705;28;20046;-73
2022/11/01 13:10:01;;;;;;;7.00;3.95;;;21.00;96.70;;;;;;4932160;29;20055;-73
2022/11/01 13:12:41;;;;;;;8.10;4.70;;;21.00;96.70;;;;;;4954802;28;20607;-73
2022/11/01 13:15:15;;;;;;;8.73;4.80;;;21.00;96.70;;;;;;4932136;28;20050;-73
2022/11/01 13:17:56;;;;;;;7.72;4.63;;;21.00;96.70;;;;;;4930731;29;20463;-73